Startpagina
METAR-TAF:

METAR-TAF

Vliegvelden :

Luchthaven Athene

Athene, Griekenland

breedte: 37-56N, lengte: 023-56E, hoogte: 94 m

Actueel weer

Dit bericht is 22 minuten geleden gemaakt, om 06:50 UTC
Wind 2 kt uit variabele richting
Temperatuur 11°C
Vochtigheid 82%
Druk 1021 hPa
Zicht 10 km of meer
Gebroken wolken op 2000 ft

METAR: LGAV 070650Z VRB02KT 9999 BKN020 11/08 Q1021 NOSIG

Tijdstip: 09:12 (07:12 UTC)

Verwachting

Dit bericht is 2 uur en het 12 minuten geleden gemaakt, om 05:00 UTC
Verwachting geldig van 07 om 06 UTC tot 08 om 06 UTC
Wind 5 kt uit variabele richting
Zicht 10 km of meer
Gebroken wolken op 2500 ft
Wijzigt naar
van 07 om 07 UTC tot 07 om 09 UTC
Wind 10 kt uit het zuidwesten
Weinig wolken op 2000 ft
Wijzigt naar
van 07 om 18 UTC tot 07 om 20 UTC
Wind 12 kt uit het westen

TAF: LGAV 070500Z 0706/0806 VRB05KT 9999 BKN025 BECMG 0707/0709 23010KT FEW020 BECMG 0718/0720 28012KT

Waarnemingen en weersverwachtingen van meer dan 4000 vliegvelden (METAR en TAF).

De beschikbare stations zijn de gele en rode punten op de kaart.

Ga met uw muis naar het station om de naam te zien.

Klik dan om waarnemingen en weersverwachtingen te zien.

kaart wijzigen: klik op de groene knoppen met een zwart kruis om in te zoomen, op de groene knop met een streepje om uit te zoomen of op de groene pijlen voor aangrenzende kaarten.


METAR-TAF: